Flugwetter

[source: ADDS]
METAR
LOWL 220820Z 26018KT 9999 FEW008 BKN012 BKN022 14/12 Q1014 TEMPO BKN016 =
TAF LOWL 220515Z 2206/2306 25012KT 9999 -RA SCT012 BKN035 TX15/2215Z TN09/2303Z TEMPO 2206/2213 27017G27KT 4500 RA FEW007 BKN010 BECMG 2222/2301 26005KT NSW SCT030 BKN050 PROB40 TEMPO 2302/2306 27010KT 3000 BR BKN005
TAF
TAF LOWL 220515Z 2206/2306 25012KT 9999 -RA SCT012 BKN035 TX15/2215Z TN09/2303Z TEMPO 2206/2213 27017G27KT 4500 RA FEW007 BKN010 BECMG 2222/2301 26005KT NSW SCT030 BKN050 PROB40 TEMPO 2302/2306 27010KT 3000 BR BKN005 =